sensor_id;sensor_type;location;lat;lon;timestamp;temperature;humidity
31809;DHT22;18379;48.208;-1.518;2022-12-05T00:01:42;6.40;99.90
31809;DHT22;18379;48.208;-1.518;2022-12-05T00:06:43;6.40;99.90
31809;DHT22;18379;48.208;-1.518;2022-12-05T00:11:44;6.40;99.90
31809;DHT22;18379;48.208;-1.518;2022-12-05T00:16:45;6.40;99.90
31809;DHT22;18379;48.208;-1.518;2022-12-05T00:21:46;6.40;99.90
31809;DHT22;18379;48.208;-1.518;2022-12-05T00:26:47;6.40;99.90
31809;DHT22;18379;48.208;-1.518;2022-12-05T00:31:47;6.40;99.90
31809;DHT22;18379;48.208;-1.518;2022-12-05T00:36:48;6.50;99.90
31809;DHT22;18379;48.208;-1.518;2022-12-05T00:41:49;6.50;99.90
31809;DHT22;18379;48.208;-1.518;2022-12-05T00:46:50;6.50;99.90
31809;DHT22;18379;48.208;-1.518;2022-12-05T00:51:51;6.50;99.90
31809;DHT22;18379;48.208;-1.518;2022-12-05T00:56:51;6.50;99.90
31809;DHT22;18379;48.208;-1.518;2022-12-05T01:01:55;6.50;99.90
31809;DHT22;18379;48.208;-1.518;2022-12-05T01:06:57;6.50;99.90
31809;DHT22;18379;48.208;-1.518;2022-12-05T01:11:58;6.50;99.90
31809;DHT22;18379;48.208;-1.518;2022-12-05T01:16:59;6.50;99.90
31809;DHT22;18379;48.208;-1.518;2022-12-05T01:22:00;6.50;99.90
31809;DHT22;18379;48.208;-1.518;2022-12-05T01:27:00;6.50;99.90
31809;DHT22;18379;48.208;-1.518;2022-12-05T01:32:02;6.40;99.90
31809;DHT22;18379;48.208;-1.518;2022-12-05T01:37:03;6.50;99.90
31809;DHT22;18379;48.208;-1.518;2022-12-05T01:42:04;6.40;99.90
31809;DHT22;18379;48.208;-1.518;2022-12-05T01:47:11;6.40;99.90
31809;DHT22;18379;48.208;-1.518;2022-12-05T01:52:20;6.50;99.90
31809;DHT22;18379;48.208;-1.518;2022-12-05T01:57:21;6.50;99.90
31809;DHT22;18379;48.208;-1.518;2022-12-05T02:02:27;6.50;99.90
31809;DHT22;18379;48.208;-1.518;2022-12-05T02:07:30;6.50;99.90
31809;DHT22;18379;48.208;-1.518;2022-12-05T02:12:32;6.50;99.90
31809;DHT22;18379;48.208;-1.518;2022-12-05T02:29:29;6.40;99.90
31809;DHT22;18379;48.208;-1.518;2022-12-05T02:34:18;6.40;99.90
31809;DHT22;18379;48.208;-1.518;2022-12-05T02:39:46;6.40;99.90
31809;DHT22;18379;48.208;-1.518;2022-12-05T02:44:59;6.50;99.90
31809;DHT22;18379;48.208;-1.518;2022-12-05T02:50:02;6.50;99.90
31809;DHT22;18379;48.208;-1.518;2022-12-05T02:55:03;6.50;99.90
31809;DHT22;18379;48.208;-1.518;2022-12-05T03:00:07;6.40;99.90
31809;DHT22;18379;48.208;-1.518;2022-12-05T03:10:42;6.50;99.90
31809;DHT22;18379;48.208;-1.518;2022-12-05T03:15:47;6.50;99.90
31809;DHT22;18379;48.208;-1.518;2022-12-05T03:31:39;6.50;99.90
31809;DHT22;18379;48.208;-1.518;2022-12-05T03:36:44;6.50;99.90
31809;DHT22;18379;48.208;-1.518;2022-12-05T03:47:19;6.50;99.90
31809;DHT22;18379;48.208;-1.518;2022-12-05T03:52:32;6.50;99.90
31809;DHT22;18379;48.208;-1.518;2022-12-05T03:57:50;6.50;99.90
31809;DHT22;18379;48.208;-1.518;2022-12-05T04:03:00;6.50;99.90
31809;DHT22;18379;48.208;-1.518;2022-12-05T04:08:06;6.50;99.90
31809;DHT22;18379;48.208;-1.518;2022-12-05T04:13:09;6.50;99.90
31809;DHT22;18379;48.208;-1.518;2022-12-05T04:18:19;6.50;99.90
31809;DHT22;18379;48.208;-1.518;2022-12-05T04:23:24;6.40;99.90
31809;DHT22;18379;48.208;-1.518;2022-12-05T04:28:35;6.40;99.90
31809;DHT22;18379;48.208;-1.518;2022-12-05T04:33:44;6.40;99.90
31809;DHT22;18379;48.208;-1.518;2022-12-05T04:38:47;6.40;99.90
31809;DHT22;18379;48.208;-1.518;2022-12-05T04:43:51;6.40;99.90
31809;DHT22;18379;48.208;-1.518;2022-12-05T04:48:57;6.40;99.90
31809;DHT22;18379;48.208;-1.518;2022-12-05T04:54:19;6.40;99.90
31809;DHT22;18379;48.208;-1.518;2022-12-05T04:59:20;6.40;99.90
31809;DHT22;18379;48.208;-1.518;2022-12-05T05:04:28;6.40;99.90
31809;DHT22;18379;48.208;-1.518;2022-12-05T05:09:30;6.50;99.90
31809;DHT22;18379;48.208;-1.518;2022-12-05T05:14:31;6.50;99.90
31809;DHT22;18379;48.208;-1.518;2022-12-05T05:19:32;6.50;99.90
31809;DHT22;18379;48.208;-1.518;2022-12-05T05:24:32;6.50;99.90
31809;DHT22;18379;48.208;-1.518;2022-12-05T05:29:33;6.40;99.90
31809;DHT22;18379;48.208;-1.518;2022-12-05T05:34:34;6.30;99.90
31809;DHT22;18379;48.208;-1.518;2022-12-05T05:39:35;6.30;99.90
31809;DHT22;18379;48.208;-1.518;2022-12-05T05:44:36;6.30;99.90
31809;DHT22;18379;48.208;-1.518;2022-12-05T05:49:36;6.40;99.90
31809;DHT22;18379;48.208;-1.518;2022-12-05T05:54:37;6.40;99.90
31809;DHT22;18379;48.208;-1.518;2022-12-05T05:59:38;6.40;99.90
31809;DHT22;18379;48.208;-1.518;2022-12-05T06:04:39;6.30;99.90
31809;DHT22;18379;48.208;-1.518;2022-12-05T06:09:40;6.30;99.90
31809;DHT22;18379;48.208;-1.518;2022-12-05T06:14:41;6.30;99.90
31809;DHT22;18379;48.208;-1.518;2022-12-05T06:19:41;6.30;99.90
31809;DHT22;18379;48.208;-1.518;2022-12-05T06:24:42;6.30;99.90
31809;DHT22;18379;48.208;-1.518;2022-12-05T06:29:43;6.30;99.90
31809;DHT22;18379;48.208;-1.518;2022-12-05T06:34:44;6.30;99.90
31809;DHT22;18379;48.208;-1.518;2022-12-05T06:39:44;6.20;99.90
31809;DHT22;18379;48.208;-1.518;2022-12-05T06:44:46;6.20;99.90
31809;DHT22;18379;48.208;-1.518;2022-12-05T06:49:47;6.30;99.90
31809;DHT22;18379;48.208;-1.518;2022-12-05T06:54:48;6.30;99.90
31809;DHT22;18379;48.208;-1.518;2022-12-05T06:59:49;6.30;99.90
31809;DHT22;18379;48.208;-1.518;2022-12-05T07:04:53;6.30;99.90
31809;DHT22;18379;48.208;-1.518;2022-12-05T07:09:54;6.30;99.90
31809;DHT22;18379;48.208;-1.518;2022-12-05T07:14:59;6.30;99.90
31809;DHT22;18379;48.208;-1.518;2022-12-05T07:20:00;6.30;99.90
31809;DHT22;18379;48.208;-1.518;2022-12-05T07:25:01;6.40;99.90
31809;DHT22;18379;48.208;-1.518;2022-12-05T07:30:03;6.40;99.90
31809;DHT22;18379;48.208;-1.518;2022-12-05T07:35:04;6.40;99.90
31809;DHT22;18379;48.208;-1.518;2022-12-05T07:40:06;6.40;99.90
31809;DHT22;18379;48.208;-1.518;2022-12-05T07:45:07;6.50;99.90
31809;DHT22;18379;48.208;-1.518;2022-12-05T07:50:09;6.40;99.90
31809;DHT22;18379;48.208;-1.518;2022-12-05T07:55:15;6.30;99.90
31809;DHT22;18379;48.208;-1.518;2022-12-05T08:00:16;6.40;99.90
31809;DHT22;18379;48.208;-1.518;2022-12-05T08:05:17;6.40;99.90
31809;DHT22;18379;48.208;-1.518;2022-12-05T08:10:18;6.50;99.90
31809;DHT22;18379;48.208;-1.518;2022-12-05T08:15:19;6.50;99.90
31809;DHT22;18379;48.208;-1.518;2022-12-05T08:20:19;6.50;99.90
31809;DHT22;18379;48.208;-1.518;2022-12-05T08:25:20;6.60;99.90
31809;DHT22;18379;48.208;-1.518;2022-12-05T08:30:21;6.60;99.90
31809;DHT22;18379;48.208;-1.518;2022-12-05T08:35:22;6.70;99.90
31809;DHT22;18379;48.208;-1.518;2022-12-05T08:40:23;6.70;99.90
31809;DHT22;18379;48.208;-1.518;2022-12-05T08:45:24;6.70;99.90
31809;DHT22;18379;48.208;-1.518;2022-12-05T08:50:26;6.70;99.90
31809;DHT22;18379;48.208;-1.518;2022-12-05T08:55:26;6.70;99.90
31809;DHT22;18379;48.208;-1.518;2022-12-05T09:00:27;6.70;99.90
31809;DHT22;18379;48.208;-1.518;2022-12-05T09:05:28;6.80;99.90
31809;DHT22;18379;48.208;-1.518;2022-12-05T09:10:29;6.80;99.90
31809;DHT22;18379;48.208;-1.518;2022-12-05T09:15:30;6.80;99.90
31809;DHT22;18379;48.208;-1.518;2022-12-05T09:20:31;6.80;99.90
31809;DHT22;18379;48.208;-1.518;2022-12-05T09:25:33;6.80;99.90
31809;DHT22;18379;48.208;-1.518;2022-12-05T09:30:35;6.80;99.90
31809;DHT22;18379;48.208;-1.518;2022-12-05T09:35:38;6.80;99.90
31809;DHT22;18379;48.208;-1.518;2022-12-05T09:40:41;6.90;99.90
31809;DHT22;18379;48.208;-1.518;2022-12-05T09:45:50;6.90;99.90
31809;DHT22;18379;48.208;-1.518;2022-12-05T09:51:00;6.90;99.90
31809;DHT22;18379;48.208;-1.518;2022-12-05T09:56:12;7.00;99.90
31809;DHT22;18379;48.208;-1.518;2022-12-05T10:17:26;7.10;99.90
31809;DHT22;18379;48.208;-1.518;2022-12-05T10:27:50;7.10;99.90
31809;DHT22;18379;48.208;-1.518;2022-12-05T10:33:03;7.20;99.90
31809;DHT22;18379;48.208;-1.518;2022-12-05T10:38:16;7.20;99.90
31809;DHT22;18379;48.208;-1.518;2022-12-05T10:43:25;7.20;99.90
31809;DHT22;18379;48.208;-1.518;2022-12-05T10:48:27;7.20;99.90
31809;DHT22;18379;48.208;-1.518;2022-12-05T10:53:48;7.20;99.90
31809;DHT22;18379;48.208;-1.518;2022-12-05T10:58:54;7.20;99.90
31809;DHT22;18379;48.208;-1.518;2022-12-05T11:09:54;7.20;99.90
31809;DHT22;18379;48.208;-1.518;2022-12-05T11:20:00;7.20;99.90
31809;DHT22;18379;48.208;-1.518;2022-12-05T11:30:28;7.30;99.90
31809;DHT22;18379;48.208;-1.518;2022-12-05T11:35:29;7.40;99.90
31809;DHT22;18379;48.208;-1.518;2022-12-05T11:40:37;7.50;99.90
31809;DHT22;18379;48.208;-1.518;2022-12-05T11:56:26;7.60;99.90
31809;DHT22;18379;48.208;-1.518;2022-12-05T12:01:45;7.50;99.90
31809;DHT22;18379;48.208;-1.518;2022-12-05T12:29:19;7.30;99.90
31809;DHT22;18379;48.208;-1.518;2022-12-05T12:45:55;6.90;99.90
31809;DHT22;18379;48.208;-1.518;2022-12-05T12:50:44;7.00;99.90
31809;DHT22;18379;48.208;-1.518;2022-12-05T12:55:51;7.00;99.90
31809;DHT22;18379;48.208;-1.518;2022-12-05T13:06:38;7.10;99.90
31809;DHT22;18379;48.208;-1.518;2022-12-05T13:11:42;7.10;99.90
31809;DHT22;18379;48.208;-1.518;2022-12-05T13:16:48;7.30;99.90
31809;DHT22;18379;48.208;-1.518;2022-12-05T13:21:50;7.30;99.90
31809;DHT22;18379;48.208;-1.518;2022-12-05T13:26:52;7.30;99.90
31809;DHT22;18379;48.208;-1.518;2022-12-05T13:31:53;7.40;99.90
31809;DHT22;18379;48.208;-1.518;2022-12-05T13:36:55;7.40;99.90
31809;DHT22;18379;48.208;-1.518;2022-12-05T13:42:25;7.50;99.90
31809;DHT22;18379;48.208;-1.518;2022-12-05T13:53:02;7.60;99.90
31809;DHT22;18379;48.208;-1.518;2022-12-05T14:13:39;7.80;99.90
31809;DHT22;18379;48.208;-1.518;2022-12-05T14:19:20;7.80;99.90
31809;DHT22;18379;48.208;-1.518;2022-12-05T14:24:44;7.80;99.90
31809;DHT22;18379;48.208;-1.518;2022-12-05T14:35:28;7.80;99.90
31809;DHT22;18379;48.208;-1.518;2022-12-05T14:40:38;7.80;99.90
31809;DHT22;18379;48.208;-1.518;2022-12-05T14:45:43;7.80;99.90
31809;DHT22;18379;48.208;-1.518;2022-12-05T14:50:54;7.70;99.90
31809;DHT22;18379;48.208;-1.518;2022-12-05T14:56:02;7.70;99.90
31809;DHT22;18379;48.208;-1.518;2022-12-05T15:06:15;7.40;99.90
31809;DHT22;18379;48.208;-1.518;2022-12-05T15:11:19;7.50;99.90
31809;DHT22;18379;48.208;-1.518;2022-12-05T15:16:30;7.40;99.90
31809;DHT22;18379;48.208;-1.518;2022-12-05T15:21:50;7.50;99.90
31809;DHT22;18379;48.208;-1.518;2022-12-05T15:26:57;7.50;99.90
31809;DHT22;18379;48.208;-1.518;2022-12-05T15:37:31;7.40;99.90
31809;DHT22;18379;48.208;-1.518;2022-12-05T15:47:52;7.50;99.90
31809;DHT22;18379;48.208;-1.518;2022-12-05T15:58:10;7.50;99.90
31809;DHT22;18379;48.208;-1.518;2022-12-05T16:03:19;7.50;99.90
31809;DHT22;18379;48.208;-1.518;2022-12-05T16:08:24;7.50;99.90
31809;DHT22;18379;48.208;-1.518;2022-12-05T16:13:29;7.60;99.90
31809;DHT22;18379;48.208;-1.518;2022-12-05T16:18:31;7.50;99.90
31809;DHT22;18379;48.208;-1.518;2022-12-05T16:23:33;7.50;99.90
31809;DHT22;18379;48.208;-1.518;2022-12-05T16:28:37;7.40;99.90
31809;DHT22;18379;48.208;-1.518;2022-12-05T16:33:39;7.40;99.90
31809;DHT22;18379;48.208;-1.518;2022-12-05T16:38:40;7.40;99.90
31809;DHT22;18379;48.208;-1.518;2022-12-05T16:43:44;7.40;99.90
31809;DHT22;18379;48.208;-1.518;2022-12-05T16:49:14;7.40;99.90
31809;DHT22;18379;48.208;-1.518;2022-12-05T16:54:16;7.40;99.90
31809;DHT22;18379;48.208;-1.518;2022-12-05T17:04:31;7.40;99.90
31809;DHT22;18379;48.208;-1.518;2022-12-05T17:09:33;7.40;99.90
31809;DHT22;18379;48.208;-1.518;2022-12-05T17:14:33;7.40;99.90
31809;DHT22;18379;48.208;-1.518;2022-12-05T17:19:34;7.40;99.90
31809;DHT22;18379;48.208;-1.518;2022-12-05T17:24:35;7.40;99.90
31809;DHT22;18379;48.208;-1.518;2022-12-05T17:29:37;7.40;99.90
31809;DHT22;18379;48.208;-1.518;2022-12-05T17:34:38;7.30;99.90
31809;DHT22;18379;48.208;-1.518;2022-12-05T17:39:39;7.30;99.90
31809;DHT22;18379;48.208;-1.518;2022-12-05T17:44:40;7.30;99.90
31809;DHT22;18379;48.208;-1.518;2022-12-05T17:49:41;7.30;99.90
31809;DHT22;18379;48.208;-1.518;2022-12-05T17:54:42;7.30;99.90
31809;DHT22;18379;48.208;-1.518;2022-12-05T17:59:43;7.40;99.90
31809;DHT22;18379;48.208;-1.518;2022-12-05T18:04:44;7.30;99.90
31809;DHT22;18379;48.208;-1.518;2022-12-05T18:09:47;7.40;99.90
31809;DHT22;18379;48.208;-1.518;2022-12-05T18:14:51;7.30;99.90
31809;DHT22;18379;48.208;-1.518;2022-12-05T18:19:53;7.30;99.90
31809;DHT22;18379;48.208;-1.518;2022-12-05T18:24:55;7.20;99.90
31809;DHT22;18379;48.208;-1.518;2022-12-05T18:29:57;7.30;99.90
31809;DHT22;18379;48.208;-1.518;2022-12-05T18:34:58;7.30;99.90
31809;DHT22;18379;48.208;-1.518;2022-12-05T18:40:01;7.30;99.90
31809;DHT22;18379;48.208;-1.518;2022-12-05T18:45:02;7.40;99.90
31809;DHT22;18379;48.208;-1.518;2022-12-05T18:50:03;7.30;99.90
31809;DHT22;18379;48.208;-1.518;2022-12-05T18:55:05;7.20;99.90
31809;DHT22;18379;48.208;-1.518;2022-12-05T19:00:06;7.20;99.90
31809;DHT22;18379;48.208;-1.518;2022-12-05T19:05:07;7.10;99.90
31809;DHT22;18379;48.208;-1.518;2022-12-05T19:10:08;7.10;99.90
31809;DHT22;18379;48.208;-1.518;2022-12-05T19:15:10;7.00;99.90
31809;DHT22;18379;48.208;-1.518;2022-12-05T19:20:11;7.00;99.90
31809;DHT22;18379;48.208;-1.518;2022-12-05T19:25:12;7.00;99.90
31809;DHT22;18379;48.208;-1.518;2022-12-05T19:30:14;7.10;99.90
31809;DHT22;18379;48.208;-1.518;2022-12-05T19:35:16;7.10;99.90
31809;DHT22;18379;48.208;-1.518;2022-12-05T19:40:16;7.00;99.90
31809;DHT22;18379;48.208;-1.518;2022-12-05T19:45:17;7.10;99.90
31809;DHT22;18379;48.208;-1.518;2022-12-05T19:50:18;7.10;99.90
31809;DHT22;18379;48.208;-1.518;2022-12-05T19:55:19;7.20;99.90
31809;DHT22;18379;48.208;-1.518;2022-12-05T20:00:20;7.20;99.90
31809;DHT22;18379;48.208;-1.518;2022-12-05T20:05:21;7.30;99.90
31809;DHT22;18379;48.208;-1.518;2022-12-05T20:10:21;7.30;99.90
31809;DHT22;18379;48.208;-1.518;2022-12-05T20:15:22;7.30;99.90
31809;DHT22;18379;48.208;-1.518;2022-12-05T20:20:23;7.30;99.90
31809;DHT22;18379;48.208;-1.518;2022-12-05T20:25:24;7.20;99.90
31809;DHT22;18379;48.208;-1.518;2022-12-05T20:30:25;7.30;99.90
31809;DHT22;18379;48.208;-1.518;2022-12-05T20:35:27;7.30;99.90
31809;DHT22;18379;48.208;-1.518;2022-12-05T20:40:28;7.30;99.90
31809;DHT22;18379;48.208;-1.518;2022-12-05T20:45:29;7.30;99.90
31809;DHT22;18379;48.208;-1.518;2022-12-05T20:50:32;7.30;99.90
31809;DHT22;18379;48.208;-1.518;2022-12-05T20:55:33;7.40;99.90
31809;DHT22;18379;48.208;-1.518;2022-12-05T21:00:35;7.30;99.90
31809;DHT22;18379;48.208;-1.518;2022-12-05T21:05:36;7.30;99.90
31809;DHT22;18379;48.208;-1.518;2022-12-05T21:10:47;7.30;99.90
31809;DHT22;18379;48.208;-1.518;2022-12-05T21:15:54;7.30;99.90
31809;DHT22;18379;48.208;-1.518;2022-12-05T21:21:05;7.30;99.90
31809;DHT22;18379;48.208;-1.518;2022-12-05T21:26:13;7.30;99.90
31809;DHT22;18379;48.208;-1.518;2022-12-05T21:31:18;7.20;99.90
31809;DHT22;18379;48.208;-1.518;2022-12-05T21:36:23;7.00;99.90
31809;DHT22;18379;48.208;-1.518;2022-12-05T21:41:25;6.90;99.90
31809;DHT22;18379;48.208;-1.518;2022-12-05T21:46:29;7.00;99.90
31809;DHT22;18379;48.208;-1.518;2022-12-05T21:51:31;6.90;99.90
31809;DHT22;18379;48.208;-1.518;2022-12-05T21:56:32;6.80;99.90
31809;DHT22;18379;48.208;-1.518;2022-12-05T22:01:33;6.80;99.90
31809;DHT22;18379;48.208;-1.518;2022-12-05T22:06:34;6.70;99.90
31809;DHT22;18379;48.208;-1.518;2022-12-05T22:11:35;6.70;99.90
31809;DHT22;18379;48.208;-1.518;2022-12-05T22:16:36;6.70;99.90
31809;DHT22;18379;48.208;-1.518;2022-12-05T22:21:36;6.60;99.90
31809;DHT22;18379;48.208;-1.518;2022-12-05T22:26:37;6.60;99.90
31809;DHT22;18379;48.208;-1.518;2022-12-05T22:31:38;6.60;99.90
31809;DHT22;18379;48.208;-1.518;2022-12-05T22:36:39;6.50;99.90
31809;DHT22;18379;48.208;-1.518;2022-12-05T22:41:39;6.50;99.90
31809;DHT22;18379;48.208;-1.518;2022-12-05T22:46:40;6.40;99.90
31809;DHT22;18379;48.208;-1.518;2022-12-05T22:51:41;6.40;99.90
31809;DHT22;18379;48.208;-1.518;2022-12-05T22:56:42;6.30;99.90
31809;DHT22;18379;48.208;-1.518;2022-12-05T23:01:42;6.30;99.90
31809;DHT22;18379;48.208;-1.518;2022-12-05T23:06:43;6.20;99.90
31809;DHT22;18379;48.208;-1.518;2022-12-05T23:11:44;6.20;99.90
31809;DHT22;18379;48.208;-1.518;2022-12-05T23:16:45;6.20;99.90
31809;DHT22;18379;48.208;-1.518;2022-12-05T23:21:46;6.20;99.90
31809;DHT22;18379;48.208;-1.518;2022-12-05T23:26:47;6.10;99.90
31809;DHT22;18379;48.208;-1.518;2022-12-05T23:31:48;6.10;99.90
31809;DHT22;18379;48.208;-1.518;2022-12-05T23:36:49;6.10;99.90
31809;DHT22;18379;48.208;-1.518;2022-12-05T23:41:49;6.00;99.90
31809;DHT22;18379;48.208;-1.518;2022-12-05T23:46:51;5.90;99.90
31809;DHT22;18379;48.208;-1.518;2022-12-05T23:51:52;5.90;99.90
31809;DHT22;18379;48.208;-1.518;2022-12-05T23:56:53;5.80;99.90
